createdAt,value
2023-03-10T00:02:49.745Z,10.27
2023-03-10T00:07:52.765Z,12.00
2023-03-10T00:12:55.591Z,10.63
2023-03-10T00:17:58.409Z,11.55
2023-03-10T00:23:01.105Z,11.50
2023-03-10T00:28:03.842Z,11.10
2023-03-10T00:33:06.635Z,11.07
2023-03-10T00:38:09.368Z,9.32
2023-03-10T00:43:12.114Z,10.25
2023-03-10T00:48:14.814Z,10.45
2023-03-10T00:53:17.690Z,9.27
2023-03-10T00:58:20.233Z,9.80
2023-03-10T01:03:24.275Z,10.35
2023-03-10T01:08:27.397Z,9.95
2023-03-10T01:13:30.284Z,9.48
2023-03-10T01:18:33.157Z,9.45
2023-03-10T01:23:36.131Z,9.13
2023-03-10T01:28:38.975Z,9.35
2023-03-10T01:33:43.071Z,8.90
2023-03-10T01:38:48.590Z,9.57
2023-03-10T01:43:54.409Z,9.77
2023-03-10T01:49:02.252Z,8.85
2023-03-10T01:54:09.650Z,8.52
2023-03-10T01:59:14.998Z,9.30
2023-03-10T02:04:27.311Z,8.38
2023-03-10T02:09:31.294Z,9.73
2023-03-10T02:14:36.102Z,7.75
2023-03-10T02:25:22.597Z,13.53
2023-03-10T02:35:37.365Z,8.57
2023-03-10T02:40:52.637Z,8.27
2023-03-10T02:46:03.275Z,7.93
2023-03-10T02:51:11.662Z,9.68
2023-03-10T02:56:16.595Z,8.50
2023-03-10T03:01:21.542Z,8.73
2023-03-10T03:06:24.391Z,8.13
2023-03-10T03:11:27.799Z,8.18
2023-03-10T03:16:30.761Z,10.32
2023-03-10T03:21:37.896Z,9.18
2023-03-10T03:26:40.822Z,9.32
2023-03-10T03:31:49.059Z,10.05
2023-03-10T03:36:55.559Z,10.80
2023-03-10T03:42:04.290Z,11.07
2023-03-10T03:47:14.704Z,11.32
2023-03-10T03:52:17.848Z,11.88
2023-03-10T03:57:21.658Z,9.68
2023-03-10T04:02:24.641Z,10.73
2023-03-10T04:07:28.408Z,10.05
2023-03-10T04:12:31.187Z,9.38
2023-03-10T04:17:34.877Z,10.35
2023-03-10T04:22:38.029Z,10.73
2023-03-10T04:27:42.152Z,10.68
2023-03-10T04:32:49.137Z,10.30
2023-03-10T04:37:54.106Z,10.93
2023-03-10T04:42:59.048Z,10.93
2023-03-10T04:48:02.838Z,10.85
2023-03-10T04:53:07.202Z,10.73
2023-03-10T04:58:10.094Z,10.13
2023-03-10T05:03:13.406Z,9.68
2023-03-10T05:08:16.264Z,10.32
2023-03-10T05:13:19.088Z,9.88
2023-03-10T05:18:21.981Z,9.15
2023-03-10T05:23:27.185Z,9.30
2023-03-10T05:28:30.766Z,9.23
2023-03-10T05:33:37.841Z,9.57
2023-03-10T05:38:40.802Z,9.45
2023-03-10T05:43:48.041Z,10.32
2023-03-10T05:48:53.165Z,10.38
2023-03-10T05:53:56.734Z,9.95
2023-03-10T05:59:03.829Z,9.95
2023-03-10T06:04:10.096Z,10.75
2023-03-10T06:09:12.975Z,9.75
2023-03-10T06:14:15.927Z,10.18
2023-03-10T06:19:19.667Z,11.10
2023-03-10T06:24:22.476Z,9.40
2023-03-10T06:29:25.371Z,10.27
2023-03-10T06:37:13.960Z,9.73
2023-03-10T06:42:16.741Z,9.05
2023-03-10T06:47:19.440Z,8.55
2023-03-10T06:52:23.010Z,8.57
2023-03-10T06:57:25.795Z,6.65
2023-03-10T07:02:28.664Z,8.77
2023-03-10T07:07:31.496Z,7.78
2023-03-10T07:12:34.258Z,8.65
2023-03-10T07:17:37.016Z,8.48
2023-03-10T07:22:40.794Z,9.40
2023-03-10T07:27:43.644Z,8.40
2023-03-10T07:32:46.600Z,6.20
2023-03-10T07:37:49.624Z,7.70
2023-03-10T07:42:54.986Z,6.97
2023-03-10T07:47:58.561Z,6.35
2023-03-10T07:53:01.765Z,5.35
2023-03-10T07:58:04.694Z,7.28
2023-03-10T08:03:07.556Z,6.00
2023-03-10T08:08:11.437Z,4.93
2023-03-10T08:13:15.024Z,5.40
2023-03-10T08:18:17.801Z,6.20
2023-03-10T08:23:20.599Z,5.43
2023-03-10T08:28:23.333Z,4.10
2023-03-10T08:33:28.788Z,5.45
2023-03-10T08:38:31.645Z,4.95
2023-03-10T08:43:34.629Z,5.63
2023-03-10T08:48:37.775Z,5.30
2023-03-10T08:53:40.966Z,3.92
2023-03-10T08:58:44.597Z,3.45
2023-03-10T09:03:47.346Z,3.65
2023-03-10T09:08:50.848Z,2.88
2023-03-10T09:13:53.882Z,3.35
2023-03-10T09:18:59.255Z,3.13
2023-03-10T09:24:03.040Z,3.70
2023-03-10T09:29:06.042Z,4.15
2023-03-10T09:34:11.745Z,4.47
2023-03-10T09:39:14.416Z,4.90
2023-03-10T09:54:59.241Z,3.28
2023-03-10T10:00:08.804Z,3.22
2023-03-10T10:10:42.706Z,3.85
2023-03-10T10:16:07.293Z,3.05
2023-03-10T10:21:33.520Z,3.08
2023-03-10T10:26:43.278Z,3.10
2023-03-10T10:32:06.132Z,3.67
2023-03-10T10:42:36.140Z,4.93
2023-03-10T10:47:55.915Z,3.90
2023-03-10T11:24:58.740Z,5.20
2023-03-10T11:35:29.575Z,4.82
2023-03-10T11:40:44.925Z,5.68
2023-03-10T11:45:53.045Z,5.30
2023-03-10T11:54:34.270Z,5.18
2023-03-10T11:59:47.637Z,5.15
2023-03-10T12:15:30.571Z,4.82
2023-03-10T12:20:34.310Z,4.53
2023-03-10T12:41:45.567Z,4.57
2023-03-10T12:47:15.994Z,4.00
2023-03-10T12:52:27.265Z,5.00
2023-03-10T13:08:25.621Z,6.38
2023-03-10T13:18:35.824Z,5.65
2023-03-10T13:23:38.701Z,5.72
2023-03-10T13:28:51.909Z,4.53
2023-03-10T13:33:56.420Z,5.15
2023-03-10T13:39:04.125Z,5.43
2023-03-10T13:44:16.308Z,6.07
2023-03-10T13:49:22.531Z,6.20
2023-03-10T13:54:30.029Z,5.40
2023-03-10T13:59:34.710Z,7.05
2023-03-10T14:04:42.915Z,5.97
2023-03-10T14:09:47.887Z,6.47
2023-03-10T14:14:52.066Z,6.85
2023-03-10T14:19:54.949Z,7.82
2023-03-10T14:24:59.768Z,7.03
2023-03-10T14:30:11.120Z,6.80
2023-03-10T14:35:16.490Z,10.07
2023-03-10T14:40:21.729Z,7.40
2023-03-10T14:45:35.174Z,5.47
2023-03-10T14:50:38.009Z,7.15
2023-03-10T14:55:43.105Z,8.77
2023-03-10T15:00:46.555Z,8.38
2023-03-10T15:05:50.547Z,7.65
2023-03-10T15:10:53.431Z,8.20
2023-03-10T15:15:56.451Z,8.63
2023-03-10T15:21:00.601Z,8.13
2023-03-10T15:26:09.856Z,9.88
2023-03-10T15:31:12.611Z,9.30
2023-03-10T15:36:15.679Z,8.48
2023-03-10T15:41:18.781Z,8.38
2023-03-10T15:46:21.716Z,8.10
2023-03-10T15:51:24.581Z,8.10
2023-03-10T15:56:27.394Z,8.32
2023-03-10T16:01:30.826Z,9.15
2023-03-10T16:06:34.273Z,10.07
2023-03-10T16:11:37.221Z,11.32
2023-03-10T16:16:40.373Z,12.60
2023-03-10T16:21:45.359Z,10.40
2023-03-10T16:26:49.082Z,10.60
2023-03-10T16:31:52.077Z,10.93
2023-03-10T16:36:55.852Z,10.98
2023-03-10T16:41:59.297Z,9.43
2023-03-10T16:47:03.382Z,8.85
2023-03-10T16:52:10.785Z,9.15
2023-03-10T16:57:16.190Z,11.85
2023-03-10T17:02:18.986Z,9.68
2023-03-10T17:07:21.820Z,12.23
2023-03-10T17:12:24.664Z,11.27
2023-03-10T17:17:30.099Z,11.15
2023-03-10T17:22:33.517Z,10.82
2023-03-10T17:27:36.362Z,11.85
2023-03-10T18:03:32.685Z,11.65
2023-03-10T18:08:35.709Z,11.50
2023-03-10T18:13:40.569Z,11.45
2023-03-10T18:18:43.659Z,12.10
2023-03-10T18:23:49.710Z,10.88
2023-03-10T18:28:52.511Z,11.38
2023-03-10T18:33:55.801Z,12.50
2023-03-10T18:38:59.762Z,11.52
2023-03-10T18:44:02.917Z,11.48
2023-03-10T18:49:05.852Z,11.63
2023-03-10T18:54:10.255Z,11.93
2023-03-10T18:59:14.002Z,13.15
2023-03-10T19:04:17.039Z,12.75
2023-03-10T19:09:20.483Z,13.35
2023-03-10T19:14:24.112Z,12.50
2023-03-10T19:19:28.597Z,13.60
2023-03-10T19:29:33.859Z,14.20
2023-03-10T19:34:36.677Z,14.05
2023-03-10T19:39:39.415Z,14.52
2023-03-10T19:44:43.183Z,14.82
2023-03-10T19:49:46.101Z,15.25
2023-03-10T19:54:48.923Z,14.63
2023-03-10T19:59:52.152Z,17.52
2023-03-10T20:04:55.240Z,14.77
2023-03-10T20:09:57.954Z,14.65
2023-03-10T20:15:01.425Z,14.05
2023-03-10T20:20:10.855Z,15.23
2023-03-10T20:25:17.570Z,14.35
2023-03-10T20:30:23.836Z,14.57
2023-03-10T20:35:28.650Z,15.68
2023-03-10T20:40:31.322Z,15.27
2023-03-10T20:45:34.928Z,16.48
2023-03-10T20:50:37.527Z,16.05
2023-03-10T20:55:41.706Z,15.77
2023-03-10T21:00:47.791Z,15.60
2023-03-10T21:05:50.645Z,16.90
2023-03-10T21:10:53.242Z,15.63
2023-03-10T21:15:55.875Z,15.75
2023-03-10T21:20:58.725Z,16.98
2023-03-10T21:26:01.326Z,16.83
2023-03-10T21:31:04.671Z,17.05
2023-03-10T21:36:08.746Z,17.02
2023-03-10T21:41:15.188Z,18.00
2023-03-10T21:46:17.941Z,17.45
2023-03-10T21:51:23.710Z,16.45
2023-03-10T21:56:28.869Z,17.38
2023-03-10T22:01:31.656Z,17.38
2023-03-10T22:06:34.527Z,17.85
2023-03-10T22:11:37.733Z,16.45
2023-03-10T22:16:40.413Z,17.77
2023-03-10T22:21:42.996Z,19.92
2023-03-10T22:26:45.536Z,19.75
2023-03-10T22:31:50.549Z,20.15
2023-03-10T22:36:53.177Z,20.80
2023-03-10T22:41:55.860Z,19.80
2023-03-10T22:46:58.582Z,19.52
2023-03-10T22:52:02.737Z,18.92
2023-03-10T22:57:05.626Z,19.17
2023-03-10T23:02:08.368Z,18.27
2023-03-10T23:07:11.394Z,20.35
2023-03-10T23:12:13.951Z,19.45
2023-03-10T23:17:16.539Z,19.10
2023-03-10T23:22:19.130Z,19.05
2023-03-10T23:27:21.687Z,19.00
2023-03-10T23:32:24.269Z,19.52
2023-03-10T23:37:26.855Z,19.30
2023-03-10T23:42:29.421Z,19.90
2023-03-10T23:47:34.690Z,17.52
2023-03-10T23:52:37.301Z,17.92
2023-03-10T23:57:39.828Z,18.65
